Time;durP1;ratioP1;P1;durP2;ratioP2;P2;SDS_P1;SDS_P2;PMS_P1;PMS_P2;Temp;Humidity;BMP_temperature;BMP_pressure;BME280_temperature;BME280_humidity;BME280_pressure;Samples;Min_cycle;Max_cycle;Signal;HPM_P1;HPM_P2
2023/08/04 00:01:13;;;;;;;8.63;1.73;;;;;;;;;;5053476;28;20072;-59
2023/08/04 00:03:39;;;;;;;6.95;1.50;;;;;;;;;;5057592;28;20057;-59
2023/08/04 00:06:09;;;;;;;13.75;1.90;;;;;;;;;;5054644;28;20103;-59
2023/08/04 00:08:35;;;;;;;7.93;1.58;;;;;;;;;;5051376;28;20112;-59
2023/08/04 00:11:01;;;;;;;5.93;1.20;;;;;;;;;;5051441;28;20079;-59
2023/08/04 00:13:28;;;;;;;8.68;1.40;;;;;;;;;;5053947;28;20048;-59
2023/08/04 00:15:54;;;;;;;6.07;1.40;;;;;;;;;;5061833;28;20045;-59
2023/08/04 00:18:20;;;;;;;9.10;1.63;;;;;;;;;;5055740;28;20044;-59
2023/08/04 00:20:46;;;;;;;10.20;2.13;;;;;;;;;;5051854;28;20040;-59
2023/08/04 00:23:12;;;;;;;6.82;1.70;;;;;;;;;;5057774;28;20040;-59
2023/08/04 00:25:38;;;;;;;8.18;2.53;;;;;;;;;;5065653;28;20085;-59
2023/08/04 00:28:05;;;;;;;7.40;2.30;;;;;;;;;;5062835;28;20442;-59
2023/08/04 00:30:31;;;;;;;9.65;1.85;;;;;;;;;;5053437;28;20045;-59
2023/08/04 00:32:57;;;;;;;11.25;2.58;;;;;;;;;;5050718;28;20111;-59
2023/08/04 00:35:23;;;;;;;7.13;1.40;;;;;;;;;;5051120;28;20037;-59
2023/08/04 00:37:50;;;;;;;7.88;2.05;;;;;;;;;;5051405;28;20059;-59
2023/08/04 00:40:16;;;;;;;4.90;1.33;;;;;;;;;;5061432;28;20448;-59
2023/08/04 00:42:42;;;;;;;3.78;1.17;;;;;;;;;;5065719;28;20345;-59
2023/08/04 00:45:09;;;;;;;4.85;1.60;;;;;;;;;;5049686;28;20128;-59
2023/08/04 00:47:37;;;;;;;6.20;1.27;;;;;;;;;;5049972;28;20061;-59
2023/08/04 00:50:04;;;;;;;5.15;0.90;;;;;;;;;;5052217;28;20120;-59
2023/08/04 00:52:31;;;;;;;4.05;1.08;;;;;;;;;;5059440;28;20044;-59
2023/08/04 00:54:57;;;;;;;2.38;1.00;;;;;;;;;;5059318;28;20048;-59
2023/08/04 00:57:24;;;;;;;2.92;0.80;;;;;;;;;;5050610;28;20055;-59
2023/08/04 00:59:50;;;;;;;1.80;0.77;;;;;;;;;;5061102;28;20087;-59
2023/08/04 01:02:16;;;;;;;3.10;0.90;;;;;;;;;;5050593;28;20025;-59
2023/08/04 01:04:42;;;;;;;2.42;0.77;;;;;;;;;;5053418;28;20048;-59
2023/08/04 01:07:16;;;;;;;3.75;0.80;;;;;;;;;;5049708;28;20045;-59
2023/08/04 01:09:42;;;;;;;;;;;;;;;;;;5050321;28;20393;-59
2023/08/04 01:12:12;;;;;;;9.45;0.80;;;;;;;;;;5057505;28;20406;-59
2023/08/04 01:14:39;;;;;;;2.40;0.80;;;;;;;;;;5049312;28;20106;-59
2023/08/04 01:17:28;;;;;;;6.38;1.00;;;;;;;;;;5052033;28;20188;-59
2023/08/04 01:19:55;;;;;;;5.10;0.90;;;;;;;;;;5047445;28;20056;-59
2023/08/04 01:22:22;;;;;;;4.35;1.30;;;;;;;;;;5062786;28;20056;-59
2023/08/04 01:24:48;;;;;;;6.00;1.70;;;;;;;;;;5050574;28;20106;-59
2023/08/04 01:27:18;;;;;;;5.07;1.20;;;;;;;;;;5049909;28;20048;-59
2023/08/04 01:29:45;;;;;;;4.10;1.27;;;;;;;;;;5058483;28;20040;-59
2023/08/04 01:32:11;;;;;;;6.32;1.10;;;;;;;;;;5061593;28;20503;-59
2023/08/04 01:34:41;;;;;;;7.20;1.30;;;;;;;;;;5065269;28;20121;-59
2023/08/04 01:37:07;;;;;;;4.95;1.20;;;;;;;;;;5056120;28;20047;-59
2023/08/04 01:39:33;;;;;;;5.15;1.27;;;;;;;;;;5072320;28;20044;-59
2023/08/04 01:41:59;;;;;;;8.70;1.42;;;;;;;;;;5073242;28;20040;-59
2023/08/04 01:44:25;;;;;;;6.40;1.65;;;;;;;;;;5055956;28;20480;-60
2023/08/04 01:46:52;;;;;;;7.75;1.33;;;;;;;;;;5049892;28;20053;-59
2023/08/04 01:49:18;;;;;;;6.07;1.60;;;;;;;;;;5074460;28;20546;-59
2023/08/04 01:51:44;;;;;;;6.05;2.20;;;;;;;;;;5066172;28;20101;-59
2023/08/04 01:54:10;;;;;;;8.88;1.65;;;;;;;;;;5060117;28;20447;-59
2023/08/04 01:56:36;;;;;;;5.30;1.52;;;;;;;;;;5051207;28;20045;-59
2023/08/04 01:59:02;;;;;;;8.45;1.88;;;;;;;;;;5071952;28;20048;-59
2023/08/04 02:01:29;;;;;;;6.45;1.50;;;;;;;;;;5059356;28;20404;-59
2023/08/04 02:03:55;;;;;;;8.25;1.52;;;;;;;;;;5060687;28;20037;-59
2023/08/04 02:06:21;;;;;;;5.70;1.48;;;;;;;;;;5066433;28;20476;-59
2023/08/04 02:08:47;;;;;;;10.55;2.65;;;;;;;;;;5057393;28;20033;-59
2023/08/04 02:11:13;;;;;;;8.32;2.67;;;;;;;;;;5066618;28;20514;-59
2023/08/04 02:13:40;;;;;;;6.30;1.50;;;;;;;;;;5060748;28;20044;-59
2023/08/04 02:16:06;;;;;;;9.27;2.10;;;;;;;;;;5054291;28;20053;-59
2023/08/04 02:18:32;;;;;;;7.13;1.92;;;;;;;;;;5061518;28;20540;-59
2023/08/04 02:20:58;;;;;;;5.85;1.63;;;;;;;;;;5067468;28;20043;-59
2023/08/04 02:23:24;;;;;;;6.85;1.83;;;;;;;;;;5059437;28;20041;-59
2023/08/04 02:25:50;;;;;;;8.77;2.58;;;;;;;;;;5051703;28;20037;-59
2023/08/04 02:28:17;;;;;;;5.63;1.80;;;;;;;;;;5054480;28;20041;-59
2023/08/04 02:30:43;;;;;;;6.78;2.20;;;;;;;;;;5053562;28;20048;-59
2023/08/04 02:33:09;;;;;;;5.85;1.98;;;;;;;;;;5051982;28;20052;-59
2023/08/04 02:35:35;;;;;;;5.93;2.42;;;;;;;;;;5053587;28;20037;-59
2023/08/04 02:38:01;;;;;;;7.40;2.00;;;;;;;;;;5055591;28;20113;-59
2023/08/04 02:40:28;;;;;;;6.25;1.95;;;;;;;;;;5068426;28;20078;-59
2023/08/04 02:42:54;;;;;;;6.00;1.70;;;;;;;;;;5070014;28;20048;-59
2023/08/04 02:45:21;;;;;;;8.95;1.90;;;;;;;;;;5061244;28;20052;-59
2023/08/04 02:47:47;;;;;;;9.77;2.38;;;;;;;;;;5052432;28;20087;-59
2023/08/04 02:50:13;;;;;;;7.72;2.17;;;;;;;;;;5064309;28;20048;-59
2023/08/04 02:52:39;;;;;;;8.63;2.20;;;;;;;;;;5053587;28;20113;-59
2023/08/04 02:55:06;;;;;;;10.48;2.58;;;;;;;;;;5053527;28;20036;-59
2023/08/04 02:57:34;;;;;;;8.43;2.67;;;;;;;;;;5068139;28;20041;-59
2023/08/04 03:00:00;;;;;;;6.80;2.28;;;;;;;;;;5055303;28;21089;-59
2023/08/04 03:02:26;;;;;;;8.23;2.15;;;;;;;;;;5053641;28;20438;-59
2023/08/04 03:04:53;;;;;;;11.18;2.30;;;;;;;;;;5057850;28;20032;-59
2023/08/04 03:07:19;;;;;;;6.22;2.17;;;;;;;;;;5058776;28;20041;-59
2023/08/04 03:09:45;;;;;;;4.50;1.88;;;;;;;;;;5061840;28;20451;-59
2023/08/04 03:12:11;;;;;;;6.28;2.42;;;;;;;;;;5055094;28;20037;-59
2023/08/04 03:14:37;;;;;;;5.68;2.55;;;;;;;;;;5055206;28;20044;-59
2023/08/04 03:17:04;;;;;;;7.22;2.15;;;;;;;;;;5057119;28;20037;-59
2023/08/04 03:19:30;;;;;;;5.60;2.30;;;;;;;;;;5052621;28;20037;-59
2023/08/04 03:21:56;;;;;;;8.70;2.80;;;;;;;;;;5056897;28;20044;-59
2023/08/04 03:24:22;;;;;;;6.65;2.20;;;;;;;;;;5053558;28;20047;-59
2023/08/04 03:26:48;;;;;;;9.65;2.70;;;;;;;;;;5054318;28;20055;-59
2023/08/04 03:29:14;;;;;;;8.90;2.72;;;;;;;;;;5056072;28;20062;-59
2023/08/04 03:31:42;;;;;;;8.80;2.47;;;;;;;;;;5055148;28;20449;-59
2023/08/04 03:34:08;;;;;;;8.07;2.42;;;;;;;;;;5058441;28;20041;-59
2023/08/04 03:36:34;;;;;;;7.57;2.78;;;;;;;;;;5068184;28;20079;-59
2023/08/04 03:39:00;;;;;;;10.32;3.42;;;;;;;;;;5053101;28;20109;-59
2023/08/04 03:41:26;;;;;;;8.85;2.90;;;;;;;;;;5065695;28;20044;-59
2023/08/04 03:43:53;;;;;;;7.80;3.35;;;;;;;;;;5052532;28;20098;-59
2023/08/04 03:46:19;;;;;;;10.60;3.20;;;;;;;;;;5058647;28;20057;-59
2023/08/04 03:48:45;;;;;;;9.45;2.53;;;;;;;;;;5051888;28;21212;-59
2023/08/04 03:51:11;;;;;;;5.72;2.67;;;;;;;;;;5051396;28;20191;-59
2023/08/04 03:53:38;;;;;;;7.38;3.28;;;;;;;;;;5052433;28;20055;-59
2023/08/04 03:56:04;;;;;;;7.47;2.88;;;;;;;;;;5051805;28;20044;-59
2023/08/04 03:58:30;;;;;;;10.57;4.03;;;;;;;;;;5058453;28;20162;-59
2023/08/04 04:00:56;;;;;;;10.95;3.33;;;;;;;;;;5052673;28;20110;-59
2023/08/04 04:03:22;;;;;;;10.52;2.95;;;;;;;;;;5051443;28;20115;-59
2023/08/04 04:05:48;;;;;;;11.85;2.85;;;;;;;;;;5055331;28;20544;-59
2023/08/04 04:08:15;;;;;;;10.63;2.90;;;;;;;;;;5068278;28;20127;-59
2023/08/04 04:10:41;;;;;;;8.60;3.13;;;;;;;;;;5057617;28;20059;-59
2023/08/04 04:13:07;;;;;;;6.07;2.75;;;;;;;;;;5055012;28;20067;-59
2023/08/04 04:15:33;;;;;;;12.77;3.42;;;;;;;;;;5052163;28;20041;-59
2023/08/04 04:17:59;;;;;;;9.82;3.72;;;;;;;;;;5051025;28;20095;-59
2023/08/04 04:20:26;;;;;;;12.32;2.92;;;;;;;;;;5053263;28;20511;-59
2023/08/04 04:22:53;;;;;;;9.02;3.72;;;;;;;;;;5052533;28;20069;-59
2023/08/04 04:25:19;;;;;;;9.68;2.83;;;;;;;;;;5059880;28;20093;-60
2023/08/04 04:27:45;;;;;;;7.75;3.17;;;;;;;;;;5059930;28;20858;-60
2023/08/04 04:30:15;;;;;;;9.43;3.35;;;;;;;;;;5062275;28;20047;-60
2023/08/04 04:32:41;;;;;;;10.20;3.05;;;;;;;;;;5065446;28;20528;-60
2023/08/04 04:35:07;;;;;;;8.98;2.78;;;;;;;;;;5068431;28;20128;-59
2023/08/04 04:37:33;;;;;;;7.28;3.13;;;;;;;;;;5073599;28;20037;-59
2023/08/04 04:40:00;;;;;;;6.68;3.05;;;;;;;;;;5071567;28;20051;-59
2023/08/04 04:42:26;;;;;;;8.73;2.78;;;;;;;;;;5069895;28;20079;-59
2023/08/04 04:44:52;;;;;;;8.88;4.10;;;;;;;;;;5069648;28;20095;-60
2023/08/04 04:47:18;;;;;;;7.50;2.70;;;;;;;;;;5065082;28;20107;-61
2023/08/04 04:49:44;;;;;;;7.53;2.85;;;;;;;;;;5069549;28;20496;-60
2023/08/04 04:52:14;;;;;;;6.90;2.80;;;;;;;;;;5069722;28;20109;-61
2023/08/04 04:54:41;;;;;;;8.02;3.20;;;;;;;;;;5069787;28;20040;-60
2023/08/04 04:57:07;;;;;;;6.22;2.67;;;;;;;;;;5069579;28;20570;-60
2023/08/04 04:59:33;;;;;;;7.95;3.05;;;;;;;;;;5069721;28;20496;-60
2023/08/04 05:02:00;;;;;;;9.07;3.35;;;;;;;;;;5070816;28;20052;-60
2023/08/04 05:04:26;;;;;;;9.20;3.38;;;;;;;;;;5070667;28;20044;-61
2023/08/04 05:06:52;;;;;;;6.00;3.03;;;;;;;;;;5067852;28;20040;-60
2023/08/04 05:09:18;;;;;;;7.40;3.25;;;;;;;;;;5070696;28;20052;-60
2023/08/04 05:11:44;;;;;;;7.90;3.15;;;;;;;;;;5070878;28;20070;-59
2023/08/04 05:14:10;;;;;;;7.47;3.22;;;;;;;;;;5069902;28;20048;-60
2023/08/04 05:16:37;;;;;;;8.30;2.95;;;;;;;;;;5070398;28;20056;-59
2023/08/04 05:19:03;;;;;;;7.30;3.13;;;;;;;;;;5068990;28;20042;-59
2023/08/04 05:21:29;;;;;;;5.82;3.17;;;;;;;;;;5069371;28;20044;-59
2023/08/04 05:23:55;;;;;;;7.65;2.72;;;;;;;;;;5070021;28;20136;-59
2023/08/04 05:26:21;;;;;;;9.68;3.30;;;;;;;;;;5070331;28;20199;-59
2023/08/04 05:28:48;;;;;;;8.50;2.47;;;;;;;;;;5068229;28;20033;-59
2023/08/04 05:31:14;;;;;;;11.00;2.83;;;;;;;;;;5060920;28;20091;-59
2023/08/04 05:33:40;;;;;;;7.75;2.20;;;;;;;;;;5059453;28;20073;-62
2023/08/04 05:36:06;;;;;;;4.78;2.28;;;;;;;;;;5067194;28;20072;-60
2023/08/04 05:38:33;;;;;;;8.95;2.85;;;;;;;;;;5070424;28;20128;-60
2023/08/04 05:41:02;;;;;;;11.27;2.75;;;;;;;;;;5070430;28;20530;-59
2023/08/04 05:43:28;;;;;;;9.68;2.97;;;;;;;;;;5059966;28;20112;-59
2023/08/04 05:45:55;;;;;;;10.68;2.65;;;;;;;;;;5070402;28;20768;-60
2023/08/04 05:48:21;;;;;;;8.15;2.33;;;;;;;;;;5069046;28;20402;-60
2023/08/04 05:50:47;;;;;;;7.80;2.65;;;;;;;;;;5067632;28;20051;-60
2023/08/04 05:53:13;;;;;;;8.65;2.70;;;;;;;;;;5070093;28;20044;-59
2023/08/04 05:55:40;;;;;;;6.82;2.70;;;;;;;;;;5069940;28;20053;-59
2023/08/04 05:58:06;;;;;;;10.60;2.50;;;;;;;;;;5069317;28;20041;-59
2023/08/04 06:00:35;;;;;;;5.78;2.45;;;;;;;;;;5070117;28;20167;-59
2023/08/04 06:03:01;;;;;;;4.25;2.20;;;;;;;;;;5073149;28;20040;-64
2023/08/04 06:05:27;;;;;;;8.60;2.55;;;;;;;;;;5073417;28;20503;-60
2023/08/04 06:07:54;;;;;;;9.82;2.83;;;;;;;;;;5072655;28;20040;-60
2023/08/04 06:10:20;;;;;;;5.43;2.88;;;;;;;;;;5073632;28;20048;-60
2023/08/04 06:12:47;;;;;;;57.00;7.07;;;;;;;;;;5074002;28;20032;-60
2023/08/04 06:15:14;;;;;;;7.22;2.38;;;;;;;;;;5073470;28;20051;-60
2023/08/04 06:17:41;;;;;;;11.55;2.72;;;;;;;;;;5072384;28;20045;-60
2023/08/04 06:20:08;;;;;;;7.20;2.20;;;;;;;;;;5072320;28;20051;-60
2023/08/04 06:22:34;;;;;;;7.32;2.10;;;;;;;;;;5072258;28;20056;-60
2023/08/04 06:25:01;;;;;;;7.07;2.83;;;;;;;;;;5071787;28;20041;-60
2023/08/04 06:27:27;;;;;;;5.65;2.00;;;;;;;;;;5072947;28;20068;-60
2023/08/04 06:29:53;;;;;;;8.38;1.90;;;;;;;;;;5072503;28;20044;-60
2023/08/04 06:32:19;;;;;;;11.98;2.53;;;;;;;;;;5066331;28;20357;-60
2023/08/04 06:34:45;;;;;;;7.18;1.75;;;;;;;;;;5068234;28;20079;-60
2023/08/04 06:37:12;;;;;;;6.40;1.60;;;;;;;;;;5069148;28;20093;-60
2023/08/04 06:39:38;;;;;;;11.10;1.80;;;;;;;;;;5065759;28;20043;-60
2023/08/04 06:42:04;;;;;;;12.55;1.55;;;;;;;;;;5085721;28;20093;-60
2023/08/04 06:44:31;;;;;;;5.25;1.67;;;;;;;;;;5073373;28;20044;-60
2023/08/04 06:46:57;;;;;;;5.35;1.73;;;;;;;;;;5072128;28;20400;-60
2023/08/04 06:49:23;;;;;;;7.25;1.60;;;;;;;;;;5073175;28;20032;-60
2023/08/04 06:51:49;;;;;;;5.80;1.85;;;;;;;;;;5060433;28;20083;-59
2023/08/04 06:54:16;;;;;;;7.97;1.90;;;;;;;;;;5069618;28;20044;-60
2023/08/04 06:56:42;;;;;;;6.90;1.50;;;;;;;;;;5061750;28;20176;-60
2023/08/04 06:59:09;;;;;;;5.50;1.75;;;;;;;;;;5060157;28;20093;-59
2023/08/04 07:01:35;;;;;;;6.50;2.28;;;;;;;;;;5058032;28;20048;-59
2023/08/04 07:04:01;;;;;;;9.25;2.33;;;;;;;;;;5065675;28;20144;-60
2023/08/04 07:06:28;;;;;;;5.43;2.13;;;;;;;;;;5070114;28;20137;-59
2023/08/04 07:08:54;;;;;;;7.78;2.47;;;;;;;;;;5071951;28;20028;-59
2023/08/04 07:11:21;;;;;;;6.80;2.00;;;;;;;;;;5071449;28;20059;-59
2023/08/04 07:13:47;;;;;;;10.07;2.00;;;;;;;;;;5060330;28;20045;-59
2023/08/04 07:16:13;;;;;;;9.02;2.85;;;;;;;;;;5056506;28;20090;-60
2023/08/04 07:18:40;;;;;;;6.65;2.00;;;;;;;;;;5057523;28;20500;-60
2023/08/04 07:21:10;;;;;;;9.95;2.25;;;;;;;;;;5051838;28;20041;-60
2023/08/04 07:23:37;;;;;;;9.30;2.33;;;;;;;;;;5061010;28;20037;-60
2023/08/04 07:26:04;;;;;;;10.65;1.90;;;;;;;;;;5059372;28;20049;-60
2023/08/04 07:28:30;;;;;;;6.85;3.22;;;;;;;;;;5069245;28;20044;-60
2023/08/04 07:30:58;;;;;;;7.80;2.22;;;;;;;;;;5064296;28;20140;-60
2023/08/04 07:33:26;;;;;;;5.40;2.28;;;;;;;;;;5066089;28;20515;-61
2023/08/04 07:35:53;;;;;;;7.13;2.15;;;;;;;;;;5071633;28;20036;-60
2023/08/04 07:38:20;;;;;;;10.13;2.00;;;;;;;;;;5069438;28;20102;-60
2023/08/04 07:40:46;;;;;;;8.65;2.53;;;;;;;;;;5070367;28;20067;-60
2023/08/04 07:43:13;;;;;;;9.20;2.42;;;;;;;;;;5071652;28;20162;-60
2023/08/04 07:45:40;;;;;;;9.90;2.25;;;;;;;;;;5070929;28;20044;-61
2023/08/04 07:48:06;;;;;;;8.35;2.13;;;;;;;;;;5071169;28;20195;-60
2023/08/04 07:50:32;;;;;;;8.77;1.92;;;;;;;;;;5071256;28;20044;-60
2023/08/04 07:52:58;;;;;;;8.13;2.50;;;;;;;;;;5070768;28;20055;-60
2023/08/04 07:55:25;;;;;;;10.20;1.98;;;;;;;;;;5069553;28;20114;-60
2023/08/04 07:57:51;;;;;;;8.25;2.17;;;;;;;;;;5070887;28;20044;-60
2023/08/04 08:00:17;;;;;;;6.13;1.63;;;;;;;;;;5070610;28;20082;-60
2023/08/04 08:02:46;;;;;;;6.30;1.90;;;;;;;;;;5067622;28;20036;-60
2023/08/04 08:05:13;;;;;;;5.47;1.40;;;;;;;;;;5070982;28;20132;-60
2023/08/04 08:07:39;;;;;;;6.22;1.65;;;;;;;;;;5068497;28;20366;-60
2023/08/04 08:10:05;;;;;;;6.13;1.38;;;;;;;;;;5062686;28;20522;-60
2023/08/04 08:12:31;;;;;;;5.15;1.25;;;;;;;;;;5060733;28;20507;-60
2023/08/04 08:14:58;;;;;;;6.50;1.45;;;;;;;;;;5067447;28;20049;-60
2023/08/04 08:17:24;;;;;;;6.00;1.70;;;;;;;;;;5070802;28;20036;-60
2023/08/04 08:19:50;;;;;;;9.05;1.63;;;;;;;;;;5070080;28;20068;-60
2023/08/04 08:22:16;;;;;;;7.13;1.30;;;;;;;;;;5071709;28;20471;-59
2023/08/04 08:24:42;;;;;;;5.25;1.35;;;;;;;;;;5070578;28;20045;-60
2023/08/04 08:27:09;;;;;;;4.47;1.35;;;;;;;;;;5071382;28;20484;-60
2023/08/04 08:29:39;;;;;;;7.30;1.60;;;;;;;;;;5067931;28;20094;-60
2023/08/04 08:32:06;;;;;;;5.88;1.85;;;;;;;;;;5057827;28;20047;-60
2023/08/04 08:34:32;;;;;;;6.78;1.27;;;;;;;;;;5050923;28;20095;-60
2023/08/04 08:36:58;;;;;;;8.98;1.42;;;;;;;;;;5066674;28;20079;-60
2023/08/04 08:39:24;;;;;;;6.10;1.60;;;;;;;;;;5059467;28;20412;-60
2023/08/04 08:41:51;;;;;;;6.75;1.48;;;;;;;;;;5069835;28;20079;-60
2023/08/04 08:44:18;;;;;;;9.05;2.38;;;;;;;;;;5071276;28;20066;-60
2023/08/04 08:46:44;;;;;;;9.93;2.08;;;;;;;;;;5069086;28;20486;-60
2023/08/04 08:49:11;;;;;;;12.18;2.13;;;;;;;;;;5070062;28;20048;-60
2023/08/04 08:51:42;;;;;;;11.43;2.30;;;;;;;;;;5069671;28;20037;-60
2023/08/04 08:54:09;;;;;;;11.00;2.30;;;;;;;;;;5070730;28;20485;-60
2023/08/04 08:56:35;;;;;;;8.23;2.67;;;;;;;;;;5061471;28;20110;-60
2023/08/04 08:59:02;;;;;;;12.82;2.42;;;;;;;;;;5066689;28;20051;-60
2023/08/04 09:01:30;;;;;;;8.82;2.45;;;;;;;;;;5064369;28;20032;-60
2023/08/04 09:04:00;;;;;;;13.50;3.30;;;;;;;;;;5063160;28;20048;-60
2023/08/04 09:06:26;;;;;;;9.68;2.33;;;;;;;;;;5065331;28;20116;-60
2023/08/04 09:08:54;;;;;;;12.32;3.42;;;;;;;;;;5067075;28;20032;-60
2023/08/04 09:11:20;;;;;;;12.52;2.78;;;;;;;;;;5068586;28;20036;-60
2023/08/04 09:13:48;;;;;;;10.43;2.60;;;;;;;;;;5065602;28;20055;-60
2023/08/04 09:16:15;;;;;;;10.43;3.42;;;;;;;;;;5069816;28;20198;-60
2023/08/04 09:18:42;;;;;;;14.93;3.05;;;;;;;;;;5069129;28;20052;-60
2023/08/04 09:21:08;;;;;;;10.13;2.40;;;;;;;;;;5068341;28;20056;-60
2023/08/04 09:23:48;;;;;;;7.25;1.83;;;;;;;;;;5070602;28;20040;-60
2023/08/04 09:26:14;;;;;;;8.30;2.03;;;;;;;;;;5070961;28;20052;-60
2023/08/04 09:28:41;;;;;;;8.90;1.98;;;;;;;;;;5066276;28;20404;-60
2023/08/04 09:31:08;;;;;;;8.07;2.20;;;;;;;;;;5061671;28;20045;-60
2023/08/04 09:33:37;;;;;;;10.75;2.05;;;;;;;;;;5067421;28;20396;-60
2023/08/04 09:36:15;;;;;;;7.93;2.35;;;;;;;;;;5069309;28;20063;-60
2023/08/04 09:38:42;;;;;;;7.03;1.80;;;;;;;;;;5071987;28;20059;-60
2023/08/04 09:41:17;;;;;;;5.78;2.10;;;;;;;;;;5070988;28;20476;-60
2023/08/04 09:43:52;;;;;;;8.77;2.25;;;;;;;;;;5074603;28;20135;-60
2023/08/04 09:46:18;;;;;;;7.22;1.92;;;;;;;;;;5074394;28;20071;-60
2023/08/04 09:48:45;;;;;;;8.38;2.05;;;;;;;;;;5073042;28;20052;-60
2023/08/04 09:51:13;;;;;;;6.65;1.77;;;;;;;;;;5072418;28;20036;-60
2023/08/04 09:53:39;;;;;;;9.05;1.83;;;;;;;;;;5066698;28;20059;-60
2023/08/04 09:56:06;;;;;;;8.05;1.67;;;;;;;;;;5073314;28;20090;-60
2023/08/04 09:58:34;;;;;;;8.63;1.92;;;;;;;;;;5071369;28;20040;-60
2023/08/04 10:01:00;;;;;;;6.30;1.65;;;;;;;;;;5071682;28;20100;-60
2023/08/04 10:03:27;;;;;;;6.57;1.50;;;;;;;;;;5069447;28;20032;-60
2023/08/04 10:05:55;;;;;;;5.85;1.40;;;;;;;;;;5071722;28;20101;-60
2023/08/04 10:08:21;;;;;;;4.30;1.40;;;;;;;;;;5068710;28;20381;-60
2023/08/04 10:10:47;;;;;;;5.40;1.52;;;;;;;;;;5072324;28;20093;-60
2023/08/04 10:13:16;;;;;;;2.47;0.63;;;;;;;;;;5071690;28;20055;-60
2023/08/04 10:15:43;;;;;;;4.63;1.25;;;;;;;;;;5072020;28;20366;-60
2023/08/04 10:18:09;;;;;;;3.22;1.20;;;;;;;;;;5073058;28;20040;-60
2023/08/04 10:20:36;;;;;;;4.95;1.30;;;;;;;;;;5066901;28;20036;-60
2023/08/04 10:23:03;;;;;;;12.02;2.47;;;;;;;;;;5066841;28;20056;-60
2023/08/04 10:25:29;;;;;;;6.95;1.60;;;;;;;;;;5074066;28;20067;-61
2023/08/04 10:27:55;;;;;;;7.20;1.58;;;;;;;;;;5071550;28;20041;-60
2023/08/04 10:30:24;;;;;;;8.63;1.95;;;;;;;;;;5056792;28;20500;-60
2023/08/04 10:32:50;;;;;;;6.15;1.98;;;;;;;;;;5055172;28;20106;-60
2023/08/04 10:35:16;;;;;;;8.85;1.75;;;;;;;;;;5068085;28;20088;-61
2023/08/04 10:37:50;;;;;;;6.32;1.20;;;;;;;;;;5065250;28;20419;-60
2023/08/04 10:40:34;;;;;;;4.57;1.33;;;;;;;;;;5060684;28;20121;-60
2023/08/04 10:43:05;;;;;;;4.32;1.20;;;;;;;;;;5064815;28;20044;-60
2023/08/04 10:45:51;;;;;;;3.25;1.10;;;;;;;;;;5072521;28;20044;-60
2023/08/04 10:48:19;;;;;;;3.95;0.98;;;;;;;;;;5071127;28;20048;-60
2023/08/04 10:50:45;;;;;;;5.95;1.13;;;;;;;;;;5073327;28;20098;-60
2023/08/04 10:53:11;;;;;;;5.43;1.35;;;;;;;;;;5070076;28;20382;-60
2023/08/04 10:55:50;;;;;;;4.28;1.38;;;;;;;;;;5073183;28;20040;-61
2023/08/04 10:58:16;;;;;;;5.38;1.45;;;;;;;;;;5071740;28;20044;-60
2023/08/04 11:00:43;;;;;;;6.18;1.38;;;;;;;;;;5069017;28;20472;-60
2023/08/04 11:03:18;;;;;;;8.93;2.03;;;;;;;;;;5061137;28;20045;-60
2023/08/04 11:05:44;;;;;;;7.90;1.58;;;;;;;;;;5069237;28;20412;-60
2023/08/04 11:08:11;;;;;;;5.13;1.30;;;;;;;;;;5061543;28;20480;-59
2023/08/04 11:10:37;;;;;;;5.68;1.58;;;;;;;;;;5065644;28;20573;-59
2023/08/04 11:13:05;;;;;;;9.25;1.92;;;;;;;;;;5071936;28;20187;-59
2023/08/04 11:15:42;;;;;;;5.55;1.50;;;;;;;;;;5072883;28;20064;-59
2023/08/04 11:18:15;;;;;;;9.68;2.05;;;;;;;;;;5072561;28;20040;-59
2023/08/04 11:20:42;;;;;;;6.28;1.90;;;;;;;;;;5072047;28;20149;-59
2023/08/04 11:23:11;;;;;;;4.75;1.60;;;;;;;;;;5072774;28;20192;-59
2023/08/04 11:25:39;;;;;;;3.80;1.00;;;;;;;;;;5072910;28;20127;-59
2023/08/04 11:28:06;;;;;;;2.85;1.00;;;;;;;;;;5071749;28;20051;-60
2023/08/04 11:30:36;;;;;;;4.80;1.10;;;;;;;;;;5068610;28;20059;-59
2023/08/04 11:33:03;;;;;;;4.97;1.10;;;;;;;;;;5063232;28;20055;-59
2023/08/04 11:35:31;;;;;;;7.95;1.60;;;;;;;;;;5071434;28;20186;-59
2023/08/04 11:37:58;;;;;;;4.57;1.42;;;;;;;;;;5070322;28;20393;-59
2023/08/04 11:40:25;;;;;;;5.38;1.27;;;;;;;;;;5066759;28;20188;-59
2023/08/04 11:42:52;;;;;;;6.88;1.80;;;;;;;;;;5072308;28;20119;-59
2023/08/04 11:45:19;;;;;;;6.35;1.70;;;;;;;;;;5072246;28;20053;-59
2023/08/04 11:47:45;;;;;;;5.82;1.67;;;;;;;;;;5071004;28;20127;-59
2023/08/04 11:50:12;;;;;;;11.35;2.35;;;;;;;;;;5072321;28;20048;-59
2023/08/04 11:52:38;;;;;;;9.70;2.60;;;;;;;;;;5071949;28;20037;-59
2023/08/04 11:55:05;;;;;;;10.73;2.17;;;;;;;;;;5071625;28;20131;-59
2023/08/04 11:57:32;;;;;;;11.45;2.72;;;;;;;;;;5072100;28;20040;-59
2023/08/04 11:59:58;;;;;;;11.73;2.40;;;;;;;;;;5066110;28;20048;-58
2023/08/04 12:02:26;;;;;;;6.45;2.30;;;;;;;;;;5070867;28;20056;-58
2023/08/04 12:05:08;;;;;;;7.18;1.88;;;;;;;;;;5068945;28;20051;-58
2023/08/04 12:07:34;;;;;;;7.07;1.95;;;;;;;;;;5060434;28;20447;-58
2023/08/04 12:10:00;;;;;;;6.75;1.95;;;;;;;;;;5065478;28;20126;-58
2023/08/04 12:12:36;;;;;;;8.40;2.00;;;;;;;;;;5057877;28;20469;-58
2023/08/04 12:15:04;;;;;;;8.52;2.20;;;;;;;;;;5053441;28;20120;-58
2023/08/04 12:17:40;;;;;;;7.47;2.10;;;;;;;;;;5065503;28;20052;-58
2023/08/04 12:20:08;;;;;;;6.28;1.92;;;;;;;;;;5068886;28;20059;-58
2023/08/04 12:22:38;;;;;;;12.02;2.15;;;;;;;;;;5061459;28;20033;-58
2023/08/04 12:25:05;;;;;;;6.88;2.53;;;;;;;;;;5065137;28;20082;-66
2023/08/04 12:27:35;;;;;;;10.20;2.65;;;;;;;;;;5057380;28;20048;-58
2023/08/04 12:30:01;;;;;;;7.40;2.03;;;;;;;;;;5050656;28;20044;-58
2023/08/04 12:32:27;;;;;;;10.07;2.97;;;;;;;;;;5063204;28;20032;-58
2023/08/04 12:34:54;;;;;;;7.95;2.63;;;;;;;;;;5071088;28;20071;-58
2023/08/04 12:37:20;;;;;;;7.20;2.03;;;;;;;;;;5070330;28;20047;-58
2023/08/04 12:39:46;;;;;;;11.32;2.03;;;;;;;;;;5065510;28;20037;-58
2023/08/04 12:42:13;;;;;;;6.70;1.73;;;;;;;;;;5066958;28;20119;-59
2023/08/04 12:44:39;;;;;;;6.85;1.90;;;;;;;;;;5069810;28;20029;-59
2023/08/04 12:47:07;;;;;;;9.07;2.45;;;;;;;;;;5068362;28;20480;-58
2023/08/04 12:49:33;;;;;;;5.40;1.50;;;;;;;;;;5069999;28;20068;-59
2023/08/04 12:52:00;;;;;;;5.18;1.60;;;;;;;;;;5069528;28;20116;-58
2023/08/04 12:54:26;;;;;;;5.90;1.38;;;;;;;;;;5070407;28;20119;-58
2023/08/04 12:56:52;;;;;;;8.55;2.25;;;;;;;;;;5070994;28;20048;-58
2023/08/04 12:59:18;;;;;;;6.88;1.67;;;;;;;;;;5070152;28;20504;-59
2023/08/04 13:01:44;;;;;;;6.68;1.85;;;;;;;;;;5070877;28;20040;-58
2023/08/04 13:04:11;;;;;;;6.03;1.90;;;;;;;;;;5068504;28;20075;-58
2023/08/04 13:06:37;;;;;;;9.13;2.30;;;;;;;;;;5070004;28;20044;-58
2023/08/04 13:09:03;;;;;;;8.80;2.53;;;;;;;;;;5070962;28;20087;-58
2023/08/04 13:11:29;;;;;;;9.70;2.08;;;;;;;;;;5070808;28;20036;-58
2023/08/04 13:13:55;;;;;;;8.80;2.10;;;;;;;;;;5062643;28;20400;-58
2023/08/04 13:16:21;;;;;;;6.88;2.10;;;;;;;;;;5067969;28;20167;-58
2023/08/04 13:18:51;;;;;;;6.82;2.08;;;;;;;;;;5070128;28;20044;-58
2023/08/04 13:21:18;;;;;;;7.13;2.10;;;;;;;;;;5067301;28;20468;-58
2023/08/04 13:23:44;;;;;;;6.68;1.90;;;;;;;;;;5070809;28;20048;-58
2023/08/04 13:26:10;;;;;;;8.13;1.65;;;;;;;;;;5069995;28;20072;-58
2023/08/04 13:28:36;;;;;;;4.95;1.40;;;;;;;;;;5050570;28;20048;-58
2023/08/04 13:31:05;;;;;;;5.57;2.05;;;;;;;;;;5060759;28;20033;-58
2023/08/04 13:33:31;;;;;;;5.72;1.80;;;;;;;;;;5064159;28;20055;-58
2023/08/04 13:35:58;;;;;;;8.85;2.47;;;;;;;;;;5070401;28;20117;-58
2023/08/04 13:38:24;;;;;;;7.65;1.90;;;;;;;;;;5070493;28;20507;-58
2023/08/04 13:40:50;;;;;;;6.20;1.83;;;;;;;;;;5069758;28;20055;-58
2023/08/04 13:43:17;;;;;;;6.85;1.50;;;;;;;;;;5069094;28;20447;-58
2023/08/04 13:45:43;;;;;;;6.25;1.70;;;;;;;;;;5057093;28;20056;-59
2023/08/04 13:48:09;;;;;;;5.40;1.45;;;;;;;;;;5068448;28;20056;-58
2023/08/04 13:50:38;;;;;;;9.93;2.05;;;;;;;;;;5070564;28;20075;-58
2023/08/04 13:53:04;;;;;;;8.18;1.60;;;;;;;;;;5070441;28;20377;-58
2023/08/04 13:55:30;;;;;;;7.45;1.40;;;;;;;;;;5065765;28;20079;-58
2023/08/04 13:57:57;;;;;;;4.75;1.42;;;;;;;;;;5065244;28;20111;-58
2023/08/04 14:00:23;;;;;;;4.90;1.50;;;;;;;;;;5070343;28;20060;-58
2023/08/04 14:02:49;;;;;;;5.60;1.90;;;;;;;;;;5067990;28;20169;-58
2023/08/04 14:05:15;;;;;;;5.82;1.60;;;;;;;;;;5062063;28;20041;-59
2023/08/04 14:07:41;;;;;;;6.25;1.40;;;;;;;;;;5065940;28;20123;-58
2023/08/04 14:10:09;;;;;;;4.68;1.20;;;;;;;;;;5068311;28;20183;-58
2023/08/04 14:12:35;;;;;;;6.22;1.60;;;;;;;;;;5054944;28;20530;-58
2023/08/04 14:15:01;;;;;;;5.72;1.80;;;;;;;;;;5052915;28;20054;-58
2023/08/04 14:17:27;;;;;;;5.65;1.50;;;;;;;;;;5054115;28;20488;-58
2023/08/04 14:19:53;;;;;;;4.55;1.50;;;;;;;;;;5055965;28;20102;-58
2023/08/04 14:22:20;;;;;;;5.38;1.35;;;;;;;;;;5065965;28;20395;-58
2023/08/04 14:24:46;;;;;;;5.40;1.92;;;;;;;;;;5061431;28;20065;-58
2023/08/04 14:27:12;;;;;;;4.85;1.23;;;;;;;;;;5067463;28;20048;-58
2023/08/04 14:29:38;;;;;;;3.25;1.25;;;;;;;;;;5070988;28;20522;-58
2023/08/04 14:32:05;;;;;;;7.35;1.50;;;;;;;;;;5059706;28;20075;-58
2023/08/04 14:34:31;;;;;;;5.53;1.30;;;;;;;;;;5072251;28;20046;-58
2023/08/04 14:36:57;;;;;;;5.07;1.88;;;;;;;;;;5072948;28;20120;-58
2023/08/04 14:39:23;;;;;;;4.30;1.30;;;;;;;;;;5068392;28;20148;-58